Cedarfalls, Iowa
Current Conditions -  °F | °C
As of 6:54 AM on Saturday 20 Dec 2014 (Local Time) from KALO Reporting Station
Haze Haze  
Wind Chill: 22°   Ceiling: 700
Heat Index: 29°   Visibility: 5mi
Dew Point: 27°   Wind: 7mph
Humidity: 92%   Direction: 170°S
Pressure: 30.2"   Gusts: NA
Location:  42.5035°N, 92.4936°W
Report Text: KALO 201254Z 17006KT 5SM BR OVC007 M02/M03 A3020 RMK AO2 SLP237 T10171028
Loading
Personal Weather Stations






























Interactive Weather Map New forecast layout! Learn more

10-Day Weather Forecast

Advertisements
Track Severe Weather on mobile